Terminal Aerodrome Forecast
Issued by NWS

Home | Current Version | Previous Version | Text Only | Print | Product List | Glossary On
Versions: 1 2 3 4 5 6 7 8 9 10 11 12 13 14 15 16 17 18 19 20 21 22 23 24 25 26 27 28 29 30 31 32
000
FTUS43 KICT 190520
TAFCNU
TAF
KCNU 190520Z 1906/2006 VRB03KT 4SM BR OVC007
     FM190900 VRB03KT 2SM BR BKN004
      TEMPO 1911/1915 1/2SM FG VV002
     FM191800 VRB05KT 4SM BR BKN007 OVC015
     FM192100 VRB03KT 5SM BR BKN015
     FM200300 19005KT 3SM BR BKN007 BKN015=

USA.gov is the U.S. government's official web portal to all federal, state and local government web resources and services.